Time;durP1;ratioP1;P1;durP2;ratioP2;P2;SDS_P1;SDS_P2;PMS_P1;PMS_P2;Temp;Humidity;BMP_temperature;BMP_pressure;BME280_temperature;BME280_humidity;BME280_pressure;Samples;Min_cycle;Max_cycle;Signal;HPM_P1;HPM_P2
2022/05/09 00:00:21;;;;;;;5.43;3.85;;;18.10;65.10;;;;;;5016540;28;20038;-67
2022/05/09 00:02:47;;;;;;;5.72;4.40;;;18.00;64.80;;;;;;5016216;28;20505;-67
2022/05/09 00:05:16;;;;;;;9.38;4.38;;;18.00;65.10;;;;;;5016207;28;20044;-67
2022/05/09 00:07:43;;;;;;;8.13;4.88;;;17.90;65.30;;;;;;5016577;28;20455;-67
2022/05/09 00:10:14;;;;;;;8.65;4.28;;;17.90;65.70;;;;;;5015924;28;20426;-67
2022/05/09 00:12:40;;;;;;;6.72;3.97;;;17.80;65.90;;;;;;5016267;28;20441;-67
2022/05/09 00:15:06;;;;;;;12.35;4.75;;;17.90;66.20;;;;;;5016257;28;20113;-67
2022/05/09 00:17:32;;;;;;;10.10;4.40;;;17.80;66.10;;;;;;5015952;28;20073;-67
2022/05/09 00:19:58;;;;;;;5.72;3.92;;;17.80;66.30;;;;;;5015811;28;20081;-67
2022/05/09 00:22:24;;;;;;;12.52;4.40;;;17.70;66.90;;;;;;5015916;28;20034;-67
2022/05/09 00:24:50;;;;;;;5.35;4.00;;;17.60;66.40;;;;;;5016055;28;20042;-67
2022/05/09 00:27:15;;;;;;;9.52;4.05;;;17.60;66.60;;;;;;5015991;28;20052;-67
2022/05/09 00:29:41;;;;;;;6.30;4.35;;;17.60;66.80;;;;;;5015662;28;20093;-67
2022/05/09 00:32:07;;;;;;;11.23;3.95;;;17.60;66.40;;;;;;5015586;28;20439;-67
2022/05/09 00:34:37;;;;;;;6.45;4.30;;;17.50;66.40;;;;;;4997823;28;20406;-67
2022/05/09 00:37:03;;;;;;;7.35;4.25;;;17.60;66.30;;;;;;5015615;28;20044;-67
2022/05/09 00:39:29;;;;;;;6.78;4.13;;;17.60;66.50;;;;;;5015520;28;20491;-67
2022/05/09 00:42:12;;;;;;;6.70;3.97;;;17.60;66.80;;;;;;5015742;28;20091;-67
2022/05/09 00:44:39;;;;;;;10.63;4.30;;;17.60;67.10;;;;;;5015356;28;20041;-67
2022/05/09 00:47:05;;;;;;;11.57;4.30;;;17.60;66.80;;;;;;5015426;28;20061;-69
2022/05/09 00:49:43;;;;;;;8.50;4.07;;;17.60;66.30;;;;;;5015410;28;20054;-67
2022/05/09 00:52:14;;;;;;;7.40;4.45;;;17.60;66.40;;;;;;5015247;28;20483;-67
2022/05/09 00:54:45;;;;;;;6.30;3.92;;;17.60;66.70;;;;;;5015342;28;20036;-67
2022/05/09 00:57:54;;;;;;;9.30;4.03;;;17.60;66.50;;;;;;5015272;28;20034;-68
2022/05/09 01:00:23;;;;;;;7.82;4.13;;;17.60;66.60;;;;;;5012030;28;20038;-66
2022/05/09 01:03:13;;;;;;;6.03;3.70;;;17.60;66.60;;;;;;5012163;28;20809;-66
2022/05/09 01:05:42;;;;;;;6.85;3.85;;;17.60;66.40;;;;;;5014317;28;20062;-65
2022/05/09 01:08:08;;;;;;;8.57;4.22;;;17.50;66.00;;;;;;5014807;28;20544;-66
2022/05/09 01:10:38;;;;;;;10.85;3.95;;;17.50;66.30;;;;;;5015161;28;20048;-66
2022/05/09 01:13:09;;;;;;;7.32;4.00;;;17.60;66.40;;;;;;5014904;28;20034;-68
2022/05/09 01:15:35;;;;;;;7.13;4.00;;;17.50;66.70;;;;;;5015079;28;20030;-68
2022/05/09 01:18:06;;;;;;;8.32;4.30;;;17.50;66.30;;;;;;5014874;28;20435;-68
2022/05/09 01:20:32;;;;;;;7.80;3.33;;;17.50;66.40;;;;;;5014480;28;20056;-69
2022/05/09 01:22:58;;;;;;;6.45;3.70;;;17.50;66.20;;;;;;5014604;28;20038;-68
2022/05/09 01:25:24;;;;;;;7.60;4.00;;;17.50;65.80;;;;;;5014491;28;20049;-68
2022/05/09 01:27:50;;;;;;;6.53;4.00;;;17.50;66.10;;;;;;5014352;28;20041;-68
2022/05/09 01:30:27;;;;;;;6.80;3.90;;;17.40;65.90;;;;;;5014468;28;20046;-68
2022/05/09 01:33:13;;;;;;;8.88;3.70;;;17.40;66.10;;;;;;5014529;28;20030;-68
2022/05/09 01:36:01;;;;;;;9.63;3.58;;;17.50;66.10;;;;;;5014432;28;20064;-68
2022/05/09 01:38:40;;;;;;;8.82;4.38;;;17.50;65.90;;;;;;5014402;28;20462;-67
2022/05/09 01:41:05;;;;;;;7.40;3.55;;;17.40;65.90;;;;;;5014408;28;20060;-69
2022/05/09 01:43:39;;;;;;;7.32;4.35;;;17.50;65.80;;;;;;5013946;28;20551;-68
2022/05/09 01:46:13;;;;;;;5.68;3.80;;;17.50;65.60;;;;;;5014219;28;20443;-68
2022/05/09 01:51:24;;;;;;;8.43;3.67;;;17.50;65.30;;;;;;5014562;28;20121;-67
2022/05/09 01:53:53;;;;;;;7.35;3.58;;;17.50;65.10;;;;;;5014243;28;20045;-68
2022/05/09 01:56:21;;;;;;;7.25;3.63;;;17.50;65.20;;;;;;5014485;28;20072;-67
2022/05/09 01:58:47;;;;;;;5.82;3.80;;;17.50;64.80;;;;;;5013923;28;20044;-68
2022/05/09 02:01:13;;;;;;;5.88;3.95;;;17.50;64.90;;;;;;5014397;28;20030;-67
2022/05/09 02:03:39;;;;;;;8.23;3.88;;;17.50;65.30;;;;;;5014027;28;20050;-67
2022/05/09 02:06:07;;;;;;;9.65;3.83;;;17.60;65.50;;;;;;5014098;28;20164;-69
2022/05/09 02:08:33;;;;;;;8.07;4.22;;;17.50;65.60;;;;;;5014164;28;20030;-68
2022/05/09 02:10:59;;;;;;;10.65;4.20;;;17.50;65.60;;;;;;5014159;28;20034;-67
2022/05/09 02:13:24;;;;;;;8.27;3.85;;;17.50;65.90;;;;;;5013666;28;20038;-67
2022/05/09 02:15:50;;;;;;;8.13;3.85;;;17.40;66.00;;;;;;5013045;28;20040;-68
2022/05/09 02:18:16;;;;;;;9.05;4.13;;;17.40;66.00;;;;;;5013661;28;20042;-68
2022/05/09 02:20:42;;;;;;;11.63;4.15;;;17.30;66.20;;;;;;5013365;28;20049;-68
2022/05/09 02:23:08;;;;;;;5.97;4.13;;;17.30;66.70;;;;;;5013754;28;20037;-68
2022/05/09 02:25:36;;;;;;;6.82;4.15;;;17.30;66.80;;;;;;5013621;28;20034;-68
2022/05/09 02:28:07;;;;;;;8.13;4.13;;;17.20;67.10;;;;;;5013439;28;20096;-67
2022/05/09 02:30:34;;;;;;;9.47;4.30;;;17.20;67.00;;;;;;5013167;28;20116;-68
2022/05/09 02:32:59;;;;;;;6.57;4.50;;;17.20;67.20;;;;;;5013533;28;20332;-67
2022/05/09 02:35:25;;;;;;;4.78;3.75;;;17.20;67.50;;;;;;5013486;28;20077;-69
2022/05/09 02:37:54;;;;;;;6.97;3.90;;;17.20;67.50;;;;;;5013349;28;20486;-68
2022/05/09 02:40:21;;;;;;;7.93;3.90;;;17.20;67.70;;;;;;5013749;28;20042;-68
2022/05/09 02:42:47;;;;;;;12.93;4.20;;;17.10;67.60;;;;;;5013463;28;20037;-68
2022/05/09 02:45:13;;;;;;;7.70;3.95;;;17.10;68.20;;;;;;5013233;28;20045;-68
2022/05/09 02:47:41;;;;;;;6.57;4.40;;;17.10;68.20;;;;;;5013085;28;20037;-68
2022/05/09 02:50:09;;;;;;;14.43;4.20;;;17.10;68.50;;;;;;5013244;28;20113;-70
2022/05/09 02:52:36;;;;;;;8.00;4.20;;;17.00;68.60;;;;;;5013160;28;20038;-68
2022/05/09 02:55:03;;;;;;;9.93;4.47;;;17.00;69.00;;;;;;5013453;28;20448;-68
2022/05/09 02:57:28;;;;;;;9.52;3.95;;;17.00;69.50;;;;;;5013454;28;20044;-69
2022/05/09 02:59:54;;;;;;;8.52;4.53;;;16.90;69.60;;;;;;5013269;28;20034;-68
2022/05/09 03:02:20;;;;;;;9.38;4.10;;;16.90;69.80;;;;;;5013087;28;20398;-68
2022/05/09 03:04:46;;;;;;;8.27;4.50;;;16.80;69.70;;;;;;5013457;28;20046;-67
2022/05/09 03:07:14;;;;;;;10.18;4.90;;;16.80;69.90;;;;;;5013292;28;20113;-68
2022/05/09 03:09:42;;;;;;;6.85;4.05;;;16.80;70.20;;;;;;5013050;28;20037;-68
2022/05/09 03:12:09;;;;;;;14.25;4.10;;;16.70;70.70;;;;;;5013225;28;20034;-68
2022/05/09 03:14:35;;;;;;;8.13;4.38;;;16.70;70.90;;;;;;5012965;28;20030;-68
2022/05/09 03:17:02;;;;;;;7.72;4.43;;;16.70;70.60;;;;;;5012913;28;20398;-68
2022/05/09 03:19:27;;;;;;;6.93;4.60;;;16.60;70.70;;;;;;5012838;28;20050;-68
2022/05/09 03:21:54;;;;;;;10.82;4.70;;;16.60;70.90;;;;;;5013110;28;20105;-67
2022/05/09 03:24:20;;;;;;;6.82;4.30;;;16.50;70.80;;;;;;5012684;28;20482;-67
2022/05/09 03:26:47;;;;;;;11.20;4.88;;;16.40;71.90;;;;;;5012898;28;20037;-68
2022/05/09 03:29:13;;;;;;;8.15;4.53;;;16.40;72.10;;;;;;5016677;28;20041;-67
2022/05/09 03:31:39;;;;;;;8.90;4.80;;;16.30;72.30;;;;;;5016970;28;20038;-68
2022/05/09 03:34:05;;;;;;;6.05;4.72;;;16.30;72.40;;;;;;5016690;28;20166;-69
2022/05/09 03:36:31;;;;;;;7.97;4.57;;;16.30;72.20;;;;;;5016791;28;20038;-68
2022/05/09 03:38:57;;;;;;;8.80;4.78;;;16.20;72.80;;;;;;5016815;28;20121;-67
2022/05/09 03:41:23;;;;;;;8.82;4.90;;;16.10;72.80;;;;;;5016945;28;20041;-68
2022/05/09 03:43:49;;;;;;;8.30;4.82;;;16.10;73.30;;;;;;5016780;28;20499;-68
2022/05/09 03:46:15;;;;;;;8.93;4.50;;;16.00;73.80;;;;;;5016733;28;20192;-67
2022/05/09 03:48:41;;;;;;;10.07;4.85;;;15.90;73.90;;;;;;5016207;28;20038;-68
2022/05/09 03:51:07;;;;;;;8.20;4.60;;;15.90;74.30;;;;;;5016539;28;20034;-68
2022/05/09 03:53:33;;;;;;;11.30;4.57;;;15.90;74.20;;;;;;5016608;28;20034;-68
2022/05/09 03:56:00;;;;;;;10.05;4.95;;;15.90;74.50;;;;;;5016600;28;20096;-70
2022/05/09 03:58:25;;;;;;;6.82;4.43;;;16.00;74.20;;;;;;5016294;28;20096;-68
2022/05/09 04:00:52;;;;;;;7.70;4.97;;;16.00;74.30;;;;;;5016259;28;20077;-67
2022/05/09 04:03:18;;;;;;;9.80;4.30;;;16.00;74.00;;;;;;5016293;28;20038;-67
2022/05/09 04:05:44;;;;;;;8.43;4.00;;;16.00;73.80;;;;;;5016206;28;20034;-68
2022/05/09 04:08:12;;;;;;;9.10;4.90;;;16.00;73.70;;;;;;5016246;28;20438;-67
2022/05/09 04:10:42;;;;;;;6.15;4.53;;;16.10;74.30;;;;;;5015697;28;20113;-69
2022/05/09 04:13:07;;;;;;;8.18;4.15;;;16.20;79.10;;;;;;5015973;28;20042;-68
2022/05/09 04:18:18;;;;;;;7.30;4.03;;;16.10;73.10;;;;;;5016526;28;20065;-68
2022/05/09 04:20:48;;;;;;;11.65;3.83;;;16.10;73.00;;;;;;5015908;28;20522;-68
2022/05/09 04:23:15;;;;;;;7.10;4.18;;;16.20;72.70;;;;;;5015688;28;20566;-68
2022/05/09 04:25:41;;;;;;;12.15;4.57;;;16.20;72.50;;;;;;5015738;28;20406;-68
2022/05/09 04:28:08;;;;;;;6.20;4.25;;;16.30;72.40;;;;;;5015948;28;20030;-68
2022/05/09 04:30:38;;;;;;;5.57;3.72;;;16.30;72.30;;;;;;5015888;28;20121;-68
2022/05/09 04:33:05;;;;;;;9.43;3.83;;;16.40;72.10;;;;;;5016039;28;20398;-68
2022/05/09 04:35:32;;;;;;;9.68;4.18;;;16.40;71.90;;;;;;5015828;28;20038;-69
2022/05/09 04:37:59;;;;;;;10.20;4.10;;;16.40;71.60;;;;;;5015126;28;20037;-68
2022/05/09 04:40:30;;;;;;;9.70;3.83;;;16.50;71.40;;;;;;5015314;28;20030;-68
2022/05/09 04:42:57;;;;;;;7.03;3.75;;;16.50;71.40;;;;;;5015673;28;20026;-68
2022/05/09 04:45:24;;;;;;;7.47;3.90;;;16.60;71.50;;;;;;5015349;28;20099;-68
2022/05/09 04:47:50;;;;;;;6.85;4.40;;;16.60;71.30;;;;;;5015505;28;20026;-68
2022/05/09 04:50:19;;;;;;;6.13;3.60;;;16.60;71.70;;;;;;5015370;28;20045;-68
2022/05/09 04:52:45;;;;;;;5.30;4.03;;;16.60;72.10;;;;;;5015071;28;20045;-67
2022/05/09 04:55:11;;;;;;;6.85;4.07;;;16.60;73.10;;;;;;5015460;28;20041;-68
2022/05/09 04:57:38;;;;;;;10.05;4.18;;;16.60;73.50;;;;;;5012210;28;20691;-67
2022/05/09 05:00:05;;;;;;;16.58;4.65;;;;;;;;;;5012344;28;20034;-68
2022/05/09 05:02:31;;;;;;;8.95;4.20;;;16.60;73.40;;;;;;5014783;28;20359;-68
2022/05/09 05:04:57;;;;;;;9.40;4.80;;;16.70;74.20;;;;;;5015046;28;20042;-68
2022/05/09 05:07:23;;;;;;;8.65;4.50;;;16.60;74.00;;;;;;5015175;28;20069;-68
2022/05/09 05:09:48;;;;;;;10.05;4.45;;;16.70;74.10;;;;;;5015264;28;20501;-68
2022/05/09 05:12:14;;;;;;;10.20;4.97;;;16.60;74.00;;;;;;5015072;28;20037;-68
2022/05/09 05:14:40;;;;;;;10.57;4.70;;;16.70;74.70;;;;;;5014573;28;20080;-68
2022/05/09 05:17:06;;;;;;;14.88;4.88;;;16.60;75.30;;;;;;5014897;28;20034;-68
2022/05/09 05:19:36;;;;;;;10.00;5.00;;;16.60;75.40;;;;;;5014790;28;20049;-68
2022/05/09 05:22:03;;;;;;;9.95;4.90;;;16.60;76.00;;;;;;5014807;28;20072;-67
2022/05/09 05:24:32;;;;;;;9.68;5.07;;;16.60;76.40;;;;;;5014564;28;20084;-68
2022/05/09 05:26:58;;;;;;;11.02;5.65;;;16.60;77.00;;;;;;5014678;28;20037;-68
2022/05/09 05:29:23;;;;;;;10.07;5.30;;;16.60;77.90;;;;;;5014549;28;20030;-68
2022/05/09 05:31:50;;;;;;;14.30;5.50;;;16.60;77.60;;;;;;5014452;28;20080;-68
2022/05/09 05:34:16;;;;;;;12.63;4.90;;;16.70;77.30;;;;;;5014414;28;20116;-69
2022/05/09 05:36:42;;;;;;;11.73;5.78;;;16.60;76.50;;;;;;5014741;28;20046;-68
2022/05/09 05:39:09;;;;;;;9.07;4.90;;;16.70;76.40;;;;;;5014523;28;20088;-68
2022/05/09 05:41:35;;;;;;;14.32;5.57;;;16.60;76.40;;;;;;5014966;28;20049;-68
2022/05/09 05:44:01;;;;;;;11.48;5.07;;;16.70;76.10;;;;;;5014251;28;20046;-68
2022/05/09 05:46:27;;;;;;;12.65;5.50;;;16.60;75.40;;;;;;5014624;28;20030;-68
2022/05/09 05:48:52;;;;;;;12.65;5.45;;;16.70;75.90;;;;;;5014298;28;20532;-68
2022/05/09 05:51:21;;;;;;;9.95;5.22;;;16.70;76.00;;;;;;5013593;28;20536;-68
2022/05/09 05:53:47;;;;;;;11.13;4.93;;;16.70;76.00;;;;;;5013826;28;20033;-68
2022/05/09 05:56:13;;;;;;;10.27;5.47;;;16.80;76.70;;;;;;5013465;28;20042;-69
2022/05/09 05:58:39;;;;;;;14.50;4.90;;;16.80;77.20;;;;;;5013381;28;20042;-68
2022/05/09 06:01:04;;;;;;;12.32;5.32;;;16.80;77.60;;;;;;5013877;28;20117;-68
2022/05/09 06:03:31;;;;;;;12.13;5.03;;;16.90;77.60;;;;;;5013889;28;20152;-68
2022/05/09 06:05:56;;;;;;;16.48;5.35;;;16.90;77.50;;;;;;5014130;28;20497;-67
2022/05/09 06:08:22;;;;;;;17.45;5.35;;;17.00;78.20;;;;;;5013955;28;20034;-69
2022/05/09 06:10:48;;;;;;;25.38;5.90;;;17.00;78.50;;;;;;5013981;28;20367;-68
2022/05/09 06:13:14;;;;;;;18.25;5.63;;;17.00;78.30;;;;;;5013137;28;20475;-68
2022/05/09 06:15:42;;;;;;;22.15;5.88;;;17.10;78.10;;;;;;5014131;28;20030;-68
2022/05/09 06:18:12;;;;;;;17.98;5.32;;;17.10;78.60;;;;;;5013891;28;20386;-68
2022/05/09 06:20:39;;;;;;;22.00;5.82;;;17.20;78.70;;;;;;5013582;28;20050;-68
2022/05/09 06:23:07;;;;;;;19.80;6.30;;;17.30;78.70;;;;;;5013611;28;20037;-68
2022/05/09 06:25:34;;;;;;;21.27;5.95;;;17.40;79.00;;;;;;5013876;28;20410;-67
2022/05/09 06:28:01;;;;;;;19.65;5.78;;;17.40;78.50;;;;;;5013591;28;20093;-68
2022/05/09 06:30:27;;;;;;;14.18;5.10;;;17.50;78.20;;;;;;5013496;28;20034;-68
2022/05/09 06:32:54;;;;;;;14.15;6.43;;;17.60;78.30;;;;;;5013644;28;20513;-68
2022/05/09 06:35:24;;;;;;;8.40;5.15;;;17.70;78.00;;;;;;5013337;28;20065;-68
2022/05/09 06:37:59;;;;;;;11.77;5.47;;;17.70;77.90;;;;;;5013577;28;20040;-68
2022/05/09 06:40:25;;;;;;;15.00;4.90;;;17.80;77.80;;;;;;5013488;28;20124;-68
2022/05/09 06:42:52;;;;;;;14.30;5.60;;;17.90;77.80;;;;;;5013441;28;20089;-69
2022/05/09 06:45:18;;;;;;;10.77;5.28;;;17.90;77.90;;;;;;5013018;28;20128;-67
2022/05/09 06:47:50;;;;;;;17.20;5.60;;;18.00;77.90;;;;;;5013507;28;20439;-68
2022/05/09 06:50:16;;;;;;;14.73;6.70;;;18.00;77.00;;;;;;5013532;28;20037;-68
2022/05/09 06:52:42;;;;;;;19.45;5.18;;;18.00;76.90;;;;;;5013293;28;20257;-68
2022/05/09 06:55:10;;;;;;;67.32;7.60;;;;;;;;;;5013136;28;20053;-66
2022/05/09 06:57:41;;;;;;;8.88;5.03;;;18.00;76.60;;;;;;5012014;28;20037;-66
2022/05/09 07:00:09;;;;;;;9.75;4.78;;;18.10;76.80;;;;;;5012877;28;20030;-66
2022/05/09 07:02:35;;;;;;;19.00;5.35;;;18.20;76.40;;;;;;5012461;28;20042;-65
2022/05/09 07:05:12;;;;;;;15.48;5.05;;;18.20;74.70;;;;;;5012722;28;20042;-66
2022/05/09 07:07:38;;;;;;;9.10;4.80;;;18.30;74.40;;;;;;5011808;28;20056;-65
2022/05/09 07:10:05;;;;;;;9.32;4.80;;;18.30;73.90;;;;;;5011861;28;20097;-66
2022/05/09 07:12:31;;;;;;;7.47;4.18;;;18.40;73.80;;;;;;5012494;28;20085;-65
2022/05/09 07:14:57;;;;;;;11.05;4.82;;;18.40;74.60;;;;;;5012039;28;20046;-66
2022/05/09 07:17:23;;;;;;;7.05;4.80;;;18.40;74.10;;;;;;5012506;28;20030;-66
2022/05/09 07:19:48;;;;;;;8.43;4.88;;;18.50;74.40;;;;;;5010902;28;20053;-66
2022/05/09 07:22:14;;;;;;;9.30;4.57;;;18.60;75.30;;;;;;5011994;28;20041;-66
2022/05/09 07:24:43;;;;;;;11.15;5.18;;;18.60;75.60;;;;;;5011907;28;20054;-66
2022/05/09 07:27:08;;;;;;;8.55;4.80;;;18.70;77.10;;;;;;5012237;28;20037;-65
2022/05/09 07:29:34;;;;;;;9.10;4.60;;;18.70;77.10;;;;;;5013278;28;20038;-66
2022/05/09 07:32:00;;;;;;;6.20;4.40;;;18.70;77.30;;;;;;5012129;28;20034;-63
2022/05/09 07:34:25;;;;;;;10.15;4.65;;;18.80;77.00;;;;;;5011362;28;20041;-66
2022/05/09 07:36:51;;;;;;;8.50;4.28;;;18.90;77.00;;;;;;5012443;28;20509;-65
2022/05/09 07:39:17;;;;;;;8.15;4.18;;;18.90;76.30;;;;;;5012292;28;20034;-65
2022/05/09 07:41:42;;;;;;;9.45;4.28;;;19.00;75.70;;;;;;5012296;28;20442;-66
2022/05/09 07:44:08;;;;;;;6.57;4.40;;;19.00;74.60;;;;;;5012222;28;20034;-66
2022/05/09 07:46:34;;;;;;;8.60;3.75;;;19.10;74.60;;;;;;5012336;28;20394;-66
2022/05/09 07:49:00;;;;;;;7.05;4.00;;;19.10;74.60;;;;;;5012643;28;20070;-66
2022/05/09 07:51:27;;;;;;;7.05;4.00;;;19.20;72.30;;;;;;5012860;28;20061;-65
2022/05/09 07:53:52;;;;;;;5.40;4.05;;;19.20;71.40;;;;;;5012738;28;20041;-66
2022/05/09 07:56:18;;;;;;;9.52;3.80;;;19.30;71.40;;;;;;5013000;28;20093;-65
2022/05/09 07:58:44;;;;;;;8.23;4.13;;;19.50;71.40;;;;;;5013002;28;20402;-66
2022/05/09 08:01:09;;;;;;;12.20;4.15;;;19.50;70.90;;;;;;5013077;28;20042;-65
2022/05/09 08:03:38;;;;;;;7.68;3.78;;;19.60;68.40;;;;;;5012850;28;20034;-65
2022/05/09 08:06:04;;;;;;;6.28;3.85;;;19.70;67.40;;;;;;5012802;28;20034;-65
2022/05/09 08:08:32;;;;;;;6.50;3.70;;;19.80;65.60;;;;;;5012749;28;20541;-65
2022/05/09 08:11:00;;;;;;;5.13;3.55;;;19.90;65.60;;;;;;5012676;28;20490;-65
2022/05/09 08:13:29;;;;;;;5.22;3.58;;;20.00;65.40;;;;;;5013579;28;20109;-67
2022/05/09 08:15:55;;;;;;;12.80;4.18;;;20.10;64.50;;;;;;5016163;28;20073;-65
2022/05/09 08:18:21;;;;;;;11.05;4.28;;;20.20;65.40;;;;;;5016140;28;20062;-66
2022/05/09 08:20:48;;;;;;;6.85;4.13;;;20.30;65.20;;;;;;5016019;28;20101;-65
2022/05/09 08:23:18;;;;;;;7.80;3.65;;;20.40;65.30;;;;;;5015975;28;20034;-65
2022/05/09 08:25:46;;;;;;;5.07;4.13;;;20.50;63.40;;;;;;5012885;28;20107;-66
2022/05/09 08:28:14;;;;;;;4.85;3.75;;;20.50;63.20;;;;;;5013323;28;20046;-66
2022/05/09 08:30:41;;;;;;;8.75;3.60;;;20.70;62.70;;;;;;5015988;28;20390;-66
2022/05/09 08:33:15;;;;;;;13.82;3.88;;;20.70;63.50;;;;;;5015847;28;20494;-66
2022/05/09 08:35:43;;;;;;;7.45;4.38;;;20.80;58.80;;;;;;5016031;28;20052;-66
2022/05/09 08:38:09;;;;;;;7.53;3.67;;;20.90;60.50;;;;;;5015980;28;20058;-66
2022/05/09 08:40:40;;;;;;;6.85;3.72;;;20.90;57.70;;;;;;5015842;28;20049;-64
2022/05/09 08:43:50;;;;;;;7.32;3.45;;;21.00;60.30;;;;;;5016154;28;20030;-64
2022/05/09 08:46:45;;;;;;;9.07;3.40;;;21.10;59.70;;;;;;4986987;28;20099;-66
2022/05/09 08:49:44;;;;;;;12.73;3.83;;;21.10;59.30;;;;;;5015778;28;20046;-66
2022/05/09 08:52:22;;;;;;;16.52;3.67;;;21.00;59.30;;;;;;5015390;28;20038;-66
2022/05/09 08:54:50;;;;;;;9.57;3.60;;;21.00;59.20;;;;;;5015375;28;20030;-66
2022/05/09 08:57:21;;;;;;;5.47;3.65;;;21.00;59.00;;;;;;5015524;28;20121;-66
2022/05/09 09:00:00;;;;;;;9.13;3.42;;;21.00;59.00;;;;;;5015743;28;20034;-66
2022/05/09 09:02:39;;;;;;;8.05;3.80;;;21.00;59.00;;;;;;5015470;28;20061;-66
2022/05/09 09:05:05;;;;;;;5.53;3.85;;;20.90;59.50;;;;;;5015017;28;20046;-66
2022/05/09 09:07:43;;;;;;;9.32;3.92;;;20.90;59.70;;;;;;5016022;28;20417;-65
2022/05/09 09:10:31;;;;;;;6.88;3.97;;;20.90;59.50;;;;;;5015355;28;20065;-66
2022/05/09 09:13:47;;;;;;;7.57;4.00;;;20.90;59.10;;;;;;5014968;28;20038;-66
2022/05/09 09:16:18;;;;;;;8.32;3.90;;;20.90;58.80;;;;;;5015302;28;20401;-66
2022/05/09 09:19:04;;;;;;;12.02;3.97;;;20.90;58.60;;;;;;5014931;28;20037;-65
2022/05/09 09:22:04;;;;;;;4.82;3.60;;;20.90;57.80;;;;;;5014889;28;20038;-65
2022/05/09 09:24:48;;;;;;;5.65;3.75;;;20.80;57.90;;;;;;5014769;28;20049;-66
2022/05/09 09:27:46;;;;;;;6.75;3.95;;;20.80;58.40;;;;;;5014942;28;20513;-66
2022/05/09 09:30:17;;;;;;;7.45;3.65;;;20.80;58.90;;;;;;5015065;28;20030;-66
2022/05/09 09:32:45;;;;;;;5.68;3.70;;;20.80;58.90;;;;;;5014817;28;20022;-66
2022/05/09 09:35:26;;;;;;;5.20;3.40;;;20.80;59.10;;;;;;5014818;28;20117;-67
2022/05/09 09:37:55;;;;;;;8.63;3.85;;;20.80;58.50;;;;;;5015092;28;20045;-66
2022/05/09 09:40:21;;;;;;;5.63;4.22;;;20.80;57.90;;;;;;5014774;28;20088;-66
2022/05/09 09:42:54;;;;;;;8.15;3.75;;;20.90;58.50;;;;;;5014981;28;20561;-66
2022/05/09 09:45:28;;;;;;;5.03;3.58;;;20.90;59.10;;;;;;5014497;28;20129;-66
2022/05/09 09:48:07;;;;;;;5.88;3.47;;;20.90;58.70;;;;;;5014541;28;20541;-66
2022/05/09 09:50:33;;;;;;;6.75;3.97;;;21.00;58.20;;;;;;5014582;28;20111;-66
2022/05/09 09:53:01;;;;;;;9.48;3.78;;;21.10;57.60;;;;;;5014831;28;20042;-66
2022/05/09 09:55:30;;;;;;;9.13;4.00;;;21.10;58.20;;;;;;5014122;28;20037;-66
2022/05/09 09:57:58;;;;;;;8.43;4.00;;;21.10;57.90;;;;;;5014204;28;20083;-66
2022/05/09 10:00:31;;;;;;;5.85;3.72;;;21.10;57.60;;;;;;5014507;28;20438;-66
2022/05/09 10:03:17;;;;;;;11.63;4.30;;;21.10;58.30;;;;;;5014379;28;20041;-66
2022/05/09 10:05:45;;;;;;;7.63;4.40;;;21.20;58.70;;;;;;5014309;28;20494;-66
2022/05/09 10:08:31;;;;;;;13.88;4.03;;;21.20;58.30;;;;;;5014124;28;20026;-66
2022/05/09 10:11:08;;;;;;;14.65;4.20;;;21.20;58.40;;;;;;5014124;28;20116;-66
2022/05/09 10:13:37;;;;;;;7.57;4.05;;;21.30;58.10;;;;;;5013967;28;20063;-66
2022/05/09 10:16:13;;;;;;;4.78;3.78;;;21.30;57.50;;;;;;5014230;28;20371;-67
2022/05/09 10:18:40;;;;;;;5.88;4.00;;;21.30;57.60;;;;;;5014340;28;20486;-67
2022/05/09 10:24:47;;;;;;;9.80;4.28;;;21.30;56.90;;;;;;5013310;28;20054;-66
2022/05/09 10:26:53;;;;;;;7.05;4.00;;;21.40;58.50;;;;;;5014215;28;20049;-66
2022/05/09 10:29:23;;;;;;;6.85;3.97;;;21.40;57.60;;;;;;5013680;28;20034;-66
2022/05/09 10:31:57;;;;;;;8.48;4.35;;;21.40;57.30;;;;;;5013602;28;20045;-66
2022/05/09 10:34:31;;;;;;;5.28;3.97;;;21.50;56.70;;;;;;5013633;28;20075;-66
2022/05/09 10:37:08;;;;;;;7.10;3.70;;;21.50;56.80;;;;;;5013359;28;20088;-66
2022/05/09 10:39:42;;;;;;;9.68;4.00;;;21.50;56.80;;;;;;5013419;28;20080;-67
2022/05/09 10:42:12;;;;;;;6.50;4.22;;;21.50;57.40;;;;;;5013376;28;20034;-66
2022/05/09 10:44:46;;;;;;;8.13;3.63;;;21.60;57.60;;;;;;5013212;28;20109;-67
2022/05/09 10:47:44;;;;;;;5.65;3.70;;;21.60;57.10;;;;;;5013486;28;20030;-66
2022/05/09 10:50:36;;;;;;;9.93;4.68;;;21.70;56.90;;;;;;5012953;28;20038;-66
2022/05/09 10:53:06;;;;;;;9.23;4.50;;;21.70;56.50;;;;;;5009097;28;20026;-66
2022/05/09 10:55:38;;;;;;;5.90;4.07;;;21.70;56.60;;;;;;5010402;28;20041;-66
2022/05/09 10:58:22;;;;;;;9.30;4.15;;;21.80;57.40;;;;;;5012509;28;20493;-67
2022/05/09 11:00:52;;;;;;;6.75;4.18;;;21.80;56.30;;;;;;5012407;28;20604;-66
2022/05/09 11:03:37;;;;;;;7.47;3.90;;;21.90;56.50;;;;;;5013053;28;20161;-67
2022/05/09 11:06:18;;;;;;;6.43;4.10;;;22.00;56.90;;;;;;5013317;28;20038;-66
2022/05/09 11:09:21;;;;;;;7.05;4.25;;;22.00;55.90;;;;;;5013200;28;20030;-66
2022/05/09 11:11:55;;;;;;;8.73;4.53;;;22.10;56.40;;;;;;5013064;28;20097;-67
2022/05/09 11:14:49;;;;;;;8.10;4.40;;;22.30;55.00;;;;;;5011416;28;20050;-66
2022/05/09 11:17:27;;;;;;;7.30;4.22;;;22.40;55.10;;;;;;5012588;28;20163;-65
2022/05/09 11:20:10;;;;;;;5.70;3.88;;;22.50;54.50;;;;;;5013414;28;20505;-66
2022/05/09 11:33:11;;;;;;;5.50;3.47;;;23.10;51.90;;;;;;5009107;28;20069;-66
2022/05/09 11:35:37;;;;;;;10.15;3.90;;;23.20;51.70;;;;;;4991423;28;20478;-66
2022/05/09 11:38:26;;;;;;;6.38;3.53;;;23.30;51.60;;;;;;4993234;28;20042;-66
2022/05/09 11:40:57;;;;;;;7.32;3.95;;;23.40;50.50;;;;;;4993154;28;20042;-67
2022/05/09 11:43:50;;;;;;;8.40;3.80;;;23.60;49.20;;;;;;4993260;28;20053;-67
2022/05/09 11:46:42;;;;;;;7.10;3.95;;;23.60;50.10;;;;;;4993271;28;20041;-66
2022/05/09 11:49:17;;;;;;;8.33;4.07;;;23.70;48.90;;;;;;4995226;28;20038;-66
2022/05/09 11:51:46;;;;;;;10.00;3.95;;;23.80;49.30;;;;;;4997047;28;20461;-66
2022/05/09 11:54:23;;;;;;;10.50;3.92;;;23.90;48.70;;;;;;4996479;28;20034;-66
2022/05/09 11:56:53;;;;;;;8.52;3.85;;;24.00;48.90;;;;;;4996758;28;20038;-67
2022/05/09 11:59:25;;;;;;;7.07;3.97;;;24.10;48.20;;;;;;4995446;28;20081;-67
2022/05/09 12:02:17;;;;;;;8.05;4.00;;;24.20;48.30;;;;;;4995887;28;20167;-67
2022/05/09 12:04:46;;;;;;;7.55;3.97;;;;;;;;;;4995675;28;20498;-67
2022/05/09 12:07:21;;;;;;;10.13;3.92;;;24.50;74.90;;;;;;4996389;28;20033;-68
2022/05/09 12:10:11;;;;;;;11.70;3.90;;;25.10;47.70;;;;;;4996235;28;20034;-67
2022/05/09 12:12:37;;;;;;;10.85;4.20;;;24.60;44.60;;;;;;4996478;28;20344;-67
2022/05/09 12:15:08;;;;;;;6.40;3.95;;;24.60;45.60;;;;;;4996315;28;20057;-66
2022/05/09 12:17:38;;;;;;;8.73;3.92;;;24.70;46.00;;;;;;4996612;28;20049;-66
2022/05/09 12:20:07;;;;;;;8.10;3.60;;;24.70;47.40;;;;;;4996412;28;20027;-66
2022/05/09 12:22:35;;;;;;;7.75;3.35;;;24.80;46.20;;;;;;4996181;28;20106;-66
2022/05/09 12:25:22;;;;;;;8.57;3.42;;;24.80;46.10;;;;;;4996106;28;20585;-66
2022/05/09 12:28:06;;;;;;;8.75;3.88;;;24.80;45.30;;;;;;4995316;28;20157;-66
2022/05/09 12:30:47;;;;;;;8.18;3.30;;;24.80;46.00;;;;;;4995852;28;20066;-66
2022/05/09 12:33:30;;;;;;;11.30;3.80;;;24.80;45.30;;;;;;4997031;28;20035;-66
2022/05/09 12:36:06;;;;;;;6.47;3.78;;;24.80;46.40;;;;;;5015001;28;20069;-66
2022/05/09 12:38:35;;;;;;;6.18;3.40;;;24.90;45.80;;;;;;5014668;28;20447;-66
2022/05/09 12:41:21;;;;;;;12.50;3.50;;;24.90;45.90;;;;;;5014560;28;20045;-67
2022/05/09 12:44:16;;;;;;;8.23;3.45;;;25.00;43.80;;;;;;5015305;28;20037;-66
2022/05/09 12:46:50;;;;;;;8.60;3.70;;;24.90;44.20;;;;;;5015327;28;20044;-66
2022/05/09 12:49:19;;;;;;;9.27;3.97;;;24.90;44.40;;;;;;5015251;28;20128;-66
2022/05/09 12:51:49;;;;;;;11.20;3.85;;;24.90;45.70;;;;;;5015252;28;20058;-66
2022/05/09 12:54:19;;;;;;;9.55;3.63;;;25.00;45.50;;;;;;5015364;28;20030;-66
2022/05/09 12:56:52;;;;;;;11.20;3.90;;;25.00;45.60;;;;;;5015424;28;20030;-66
2022/05/09 12:59:19;;;;;;;7.38;3.67;;;25.00;44.40;;;;;;5014989;28;20482;-66
2022/05/09 13:01:58;;;;;;;4.75;3.63;;;24.90;43.60;;;;;;5014985;28;20038;-66
2022/05/09 13:04:31;;;;;;;14.43;4.07;;;24.90;45.50;;;;;;5015025;28;20080;-66
2022/05/09 13:07:02;;;;;;;8.45;4.30;;;24.90;44.70;;;;;;5015393;28;20061;-66
2022/05/09 13:09:34;;;;;;;5.90;3.55;;;24.80;45.10;;;;;;5014734;28;20085;-67
2022/05/09 13:12:20;;;;;;;6.68;3.55;;;24.80;44.60;;;;;;5014289;28;20034;-66
2022/05/09 13:15:17;;;;;;;8.85;4.35;;;24.70;45.10;;;;;;5014401;28;20034;-66
2022/05/09 13:18:01;;;;;;;8.98;3.95;;;24.70;47.30;;;;;;4997015;28;20067;-66
2022/05/09 13:20:31;;;;;;;11.60;4.45;;;24.70;45.40;;;;;;5014138;28;20042;-66
2022/05/09 13:23:00;;;;;;;8.48;3.88;;;24.70;46.20;;;;;;5014687;28;20533;-66